Time;durP1;ratioP1;P1;durP2;ratioP2;P2;SDS_P1;SDS_P2;PMS_P1;PMS_P2;Temp;Humidity;BMP_temperature;BMP_pressure;BME280_temperature;BME280_humidity;BME280_pressure;Samples;Min_cycle;Max_cycle;Signal;HPM_P1;HPM_P2
2022/09/18 00:01:25;;;;;;;;;;;;;;;16.62;58.23;99291.84;5079499;28;1159;-59
2022/09/18 00:03:51;;;;;;;;;;;;;;;16.52;57.62;99283.81;5079405;28;1186;-59
2022/09/18 00:06:17;;;;;;;;;;;;;;;16.46;57.40;99288.63;5060637;28;1910;-59
2022/09/18 00:08:43;;;;;;;;;;;;;;;16.39;57.39;99283.56;5079600;28;1171;-59
2022/09/18 00:11:09;;;;;;;;;;;;;;;16.35;57.33;99279.81;5061809;28;1222;-59
2022/09/18 00:13:35;;;;;;;;;;;;;;;16.33;56.83;99282.06;5078993;28;1344;-59
2022/09/18 00:16:01;;;;;;;;;;;;;;;16.27;56.79;99283.31;5078949;28;1242;-59
2022/09/18 00:18:26;;;;;;;;;;;;;;;16.18;56.84;99277.72;5079172;28;1163;-59
2022/09/18 00:20:51;;;;;;;;;;;;;;;16.77;58.03;99294.22;5078529;28;1222;-60
2022/09/18 00:23:17;;;;;;;;;;;;;;;17.50;58.09;99296.00;5079557;28;1219;-60
2022/09/18 00:25:42;;;;;;;;;;;;;;;16.91;58.71;99283.22;5079025;28;1214;-60
2022/09/18 00:28:08;;;;;;;;;;;;;;;16.71;58.30;99295.47;5078007;28;1984;-60
2022/09/18 00:30:33;;;;;;;;;;;;;;;16.55;57.79;99307.91;5078857;28;1214;-59
2022/09/18 00:32:59;;;;;;;;;;;;;;;16.42;57.86;99304.91;5078307;28;975;-59
2022/09/18 00:35:24;;;;;;;;;;;;;;;16.38;57.69;99303.91;5078642;28;1170;-59
2022/09/18 00:37:50;;;;;;;;;;;;;;;16.40;57.11;99317.31;5078686;28;1143;-60
2022/09/18 00:40:16;;;;;;;;;;;;;;;16.32;56.93;99299.63;5078613;28;1151;-59
2022/09/18 00:42:42;;;;;;;;;;;;;;;16.26;56.81;99298.13;5078452;28;1202;-59
2022/09/18 00:45:09;;;;;;;;;;;;;;;16.20;57.18;99302.06;5074003;28;877;-58
2022/09/18 00:47:40;;;;;;;;;;;;;;;17.17;58.13;99301.00;5050951;28;1906;-60
2022/09/18 00:50:13;;;;;;;;;;;;;;;17.12;58.65;99299.16;5060472;28;1152;-59
2022/09/18 00:52:42;;;;;;;;;;;;;;;16.76;58.54;99298.09;5078566;28;1170;-59
2022/09/18 00:55:08;;;;;;;;;;;;;;;16.58;58.24;99296.34;5060644;28;1120;-59
2022/09/18 00:57:34;;;;;;;;;;;;;;;16.51;57.86;99296.75;5059573;28;1453;-59
2022/09/18 01:00:00;;;;;;;;;;;;;;;16.44;57.56;99301.84;5060535;28;1148;-59
2022/09/18 01:02:25;;;;;;;;;;;;;;;16.41;57.15;99291.47;5059374;28;1168;-59
2022/09/18 01:04:51;;;;;;;;;;;;;;;16.32;57.28;99293.34;5060016;28;1283;-58
2022/09/18 01:07:24;;;;;;;;;;;;;;;16.25;57.01;99294.56;5078159;28;1910;-58
2022/09/18 01:09:54;;;;;;;;;;;;;;;16.20;57.12;99291.09;5043132;28;1182;-61
2022/09/18 01:12:39;;;;;;;;;;;;;;;16.75;58.11;99284.69;5060192;28;1218;-60
2022/09/18 01:15:11;;;;;;;;;;;;;;;17.32;58.41;99280.53;5042967;28;1575;-59
2022/09/18 01:17:36;;;;;;;;;;;;;;;16.80;58.54;99291.97;5077935;28;1143;-59
2022/09/18 01:20:11;;;;;;;;;;;;;;;16.63;58.26;99287.97;5059921;28;1265;-59
2022/09/18 01:22:36;;;;;;;;;;;;;;;16.53;57.81;99282.72;5059837;28;1119;-60
2022/09/18 01:25:05;;;;;;;;;;;;;;;16.48;57.52;99280.06;5060085;28;1735;-59
2022/09/18 01:27:39;;;;;;;;;;;;;;;16.39;57.23;99289.03;5059673;28;1980;-59
2022/09/18 01:30:09;;;;;;;;;;;;;;;16.32;57.21;99285.09;5073140;28;1607;-59
2022/09/18 01:33:07;;;;;;;;;;;;;;;16.25;57.31;99297.28;5059456;28;1154;-60
2022/09/18 01:35:38;;;;;;;;;;;;;;;16.20;56.83;99285.63;5013508;28;1404;-60
2022/09/18 01:38:06;;;;;;;;;;;;;;;16.74;58.17;99283.84;5029782;28;1559;-60
2022/09/18 01:40:33;;;;;;;;;;;;;;;17.27;58.60;99285.03;5042850;28;1226;-61
2022/09/18 01:42:59;;;;;;;;;;;;;;;16.78;58.50;99295.03;5059435;28;1215;-60
2022/09/18 01:45:26;;;;;;;;;;;;;;;16.59;58.29;99287.78;5077060;28;1159;-60
2022/09/18 01:47:54;;;;;;;;;;;;;;;16.50;57.86;99294.31;5042943;28;1909;-61
2022/09/18 01:50:19;;;;;;;;;;;;;;;16.42;57.78;99290.34;5039215;28;1160;-59
2022/09/18 01:52:57;;;;;;;;;;;;;;;16.38;57.20;99286.59;5050706;28;1182;-60
2022/09/18 01:55:24;;;;;;;;;;;;;;;16.33;56.99;99284.00;5059245;28;1636;-61
2022/09/18 01:57:52;;;;;;;;;;;;;;;16.23;57.02;99285.84;5040912;28;1291;-61
2022/09/18 02:00:18;;;;;;;;;;;;;;;16.20;57.14;99280.13;5039907;28;1274;-61
2022/09/18 02:02:44;;;;;;;;;;;;;;;16.18;56.78;99285.13;5076929;28;1123;-60
2022/09/18 02:05:10;;;;;;;;;;;;;;;16.77;58.28;99290.66;5058987;28;1282;-61
2022/09/18 02:07:57;;;;;;;;;;;;;;;17.30;58.28;99289.09;5043232;28;1979;-61
2022/09/18 02:10:23;;;;;;;;;;;;;;;16.72;58.54;99294.34;5045888;28;1152;-60
2022/09/18 02:12:49;;;;;;;;;;;;;;;16.57;58.03;99281.78;5042215;28;1377;-61
2022/09/18 02:15:15;;;;;;;;;;;;;;;16.46;58.04;99287.81;5058806;28;1277;-60
2022/09/18 02:17:52;;;;;;;;;;;;;;;16.39;57.68;99286.28;5058615;28;1231;-60
2022/09/18 02:20:19;;;;;;;;;;;;;;;16.32;57.29;99296.88;5058521;28;1163;-61
2022/09/18 02:22:44;;;;;;;;;;;;;;;16.28;57.00;99304.09;5073715;28;902;-61
2022/09/18 02:25:10;;;;;;;;;;;;;;;16.25;57.08;99305.53;5059167;28;1215;-59
2022/09/18 02:27:39;;;;;;;;;;;;;;;17.57;58.15;99304.63;5058598;28;1973;-62
2022/09/18 02:30:05;;;;;;;;;;;;;;;17.04;58.86;99311.72;5058782;28;1276;-59
2022/09/18 02:32:30;;;;;;;;;;;;;;;16.70;58.58;99310.28;5041734;28;1360;-60
2022/09/18 02:34:56;;;;;;;;;;;;;;;16.60;58.14;99294.06;5075759;28;1372;-59
2022/09/18 02:37:21;;;;;;;;;;;;;;;16.48;57.71;99304.78;5076754;28;1175;-61
2022/09/18 02:39:53;;;;;;;;;;;;;;;16.41;57.58;99303.28;5076414;28;1179;-60
2022/09/18 02:42:37;;;;;;;;;;;;;;;16.33;57.08;99297.72;5076397;28;1155;-60
2022/09/18 02:45:18;;;;;;;;;;;;;;;16.24;57.16;99305.84;5058073;28;1238;-61
2022/09/18 02:48:02;;;;;;;;;;;;;;;16.24;57.13;99314.06;5058522;28;1985;-60
2022/09/18 02:50:33;;;;;;;;;;;;;;;16.20;56.95;99321.28;5045090;28;1386;-61
2022/09/18 02:52:58;;;;;;;;;;;;;;;17.51;58.27;99332.53;5074748;28;1210;-61
2022/09/18 02:55:25;;;;;;;;;;;;;;;17.14;58.82;99334.56;5076514;28;1221;-60
2022/09/18 02:57:56;;;;;;;;;;;;;;;16.73;58.76;99326.16;5039328;28;1276;-60
2022/09/18 03:00:21;;;;;;;;;;;;;;;16.59;58.33;99323.47;5058682;28;1151;-66
2022/09/18 03:02:51;;;;;;;;;;;;;;;16.49;58.18;99339.34;5041793;28;1401;-62
2022/09/18 03:05:29;;;;;;;;;;;;;;;16.42;57.50;99331.50;5057984;28;1326;-64
2022/09/18 03:07:57;;;;;;;;;;;;;;;16.38;57.31;99341.47;5058446;28;1984;-62
2022/09/18 03:10:25;;;;;;;;;;;;;;;16.30;57.46;99340.28;5057857;28;1634;-65
2022/09/18 03:12:51;;;;;;;;;;;;;;;16.22;57.44;99351.97;5057871;28;1249;-61
2022/09/18 03:15:16;;;;;;;;;;;;;;;16.16;57.14;99353.16;5076330;28;1171;-64
2022/09/18 03:17:41;;;;;;;;;;;;;;;16.92;58.53;99347.16;5058391;28;1124;-65
2022/09/18 03:20:07;;;;;;;;;;;;;;;17.43;58.58;99356.91;5058092;28;1271;-63
2022/09/18 03:22:33;;;;;;;;;;;;;;;16.85;59.07;99360.50;5068844;28;1150;-64
2022/09/18 03:24:59;;;;;;;;;;;;;;;16.68;58.39;99353.72;5076297;28;1223;-60
2022/09/18 03:27:25;;;;;;;;;;;;;;;16.54;58.04;99366.66;5061599;28;1989;-63
2022/09/18 03:29:51;;;;;;;;;;;;;;;16.47;57.74;99382.75;5048258;28;1119;-61
2022/09/18 03:32:20;;;;;;;;;;;;;;;16.35;57.62;99395.00;5061887;28;1222;-61
2022/09/18 03:34:48;;;;;;;;;;;;;;;16.33;57.49;99399.22;5061635;28;1226;-60
2022/09/18 03:37:15;;;;;;;;;;;;;;;16.31;57.24;99406.91;5062064;28;1242;-61
2022/09/18 03:39:40;;;;;;;;;;;;;;;16.18;57.32;99419.50;5061953;28;1178;-64
2022/09/18 03:42:10;;;;;;;;;;;;;;;16.17;56.88;99424.19;5066042;28;1701;-62
2022/09/18 03:44:35;;;;;;;;;;;;;;;16.97;58.29;99439.59;5057013;28;1277;-60
2022/09/18 03:47:03;;;;;;;;;;;;;;;17.17;58.71;99465.81;5055310;28;1980;-63
2022/09/18 03:49:29;;;;;;;;;;;;;;;16.71;58.76;99460.16;5061491;28;1201;-60
2022/09/18 03:51:54;;;;;;;;;;;;;;;16.52;58.60;99463.03;5061746;28;1155;-60
2022/09/18 03:54:20;;;;;;;;;;;;;;;16.46;57.96;99482.63;5061481;28;1193;-63
2022/09/18 03:57:21;;;;;;;;;;;;;;;16.39;57.83;99489.31;4967423;28;1288;-59
2022/09/18 04:00:12;;;;;;;;;;;;;;;16.29;57.54;99480.47;5046890;28;1288;-60
2022/09/18 04:02:41;;;;;;;;;;;;;;;16.26;57.58;99492.88;5066892;28;1556;-60
2022/09/18 04:05:33;;;;;;;;;;;;;;;16.28;57.46;99484.34;5020170;28;1050;-60
2022/09/18 04:08:17;;;;;;;;;;;;;;;17.66;58.29;99483.31;5078461;28;1984;-61
2022/09/18 04:11:18;;;;;;;;;;;;;;;16.96;59.43;99492.88;5063332;28;1127;-60
2022/09/18 04:13:43;;;;;;;;;;;;;;;16.72;58.80;99491.97;5059248;28;2370;-62
2022/09/18 04:16:12;;;;;;;;;;;;;;;16.57;58.52;99492.28;5060629;28;2313;-62
2022/09/18 04:18:37;;;;;;;;;;;;;;;16.51;58.15;99496.22;5061018;28;1861;-60
2022/09/18 04:21:04;;;;;;;;;;;;;;;16.46;57.87;99496.34;5060658;28;2142;-60
2022/09/18 04:23:30;;;;;;;;;;;;;;;16.41;57.51;99511.78;5058460;28;1892;-60
2022/09/18 04:25:56;;;;;;;;;;;;;;;16.28;57.67;99520.78;5059910;28;2089;-59
2022/09/18 04:28:26;;;;;;;;;;;;;;;16.25;57.73;99526.88;5060836;28;2165;-59
2022/09/18 04:30:51;;;;;;;;;;;;;;;16.22;57.49;99541.22;5060714;28;1280;-60
2022/09/18 04:33:17;;;;;;;;;;;;;;;16.64;58.64;99558.56;5060608;28;1150;-59
2022/09/18 04:35:42;;;;;;;;;;;;;;;17.43;58.91;99574.00;5059759;28;1124;-61
2022/09/18 04:38:08;;;;;;;;;;;;;;;16.84;59.18;99581.25;5043470;28;1219;-60
2022/09/18 04:40:33;;;;;;;;;;;;;;;16.68;58.59;99589.78;5060427;28;1237;-60
2022/09/18 04:42:59;;;;;;;;;;;;;;;16.51;58.59;99609.56;5060465;28;1151;-62
2022/09/18 04:45:26;;;;;;;;;;;;;;;16.47;57.86;99618.72;5060111;28;1183;-62
2022/09/18 04:47:52;;;;;;;;;;;;;;;16.40;57.63;99619.09;5077526;28;1922;-61
2022/09/18 04:50:19;;;;;;;;;;;;;;;16.30;57.82;99635.69;5060358;28;1149;-62
2022/09/18 04:53:03;;;;;;;;;;;;;;;16.28;57.42;99644.22;5078154;28;1123;-63
2022/09/18 04:55:31;;;;;;;;;;;;;;;16.16;57.48;99647.44;5059595;28;1394;-61
2022/09/18 04:57:56;;;;;;;;;;;;;;;16.19;57.33;99646.03;5059302;28;2254;-61
2022/09/18 05:00:22;;;;;;;;;;;;;;;16.41;58.26;99657.19;5057946;28;1191;-62
2022/09/18 05:02:47;;;;;;;;;;;;;;;17.59;58.70;99665.19;5043264;28;1180;-63
2022/09/18 05:05:17;;;;;;;;;;;;;;;16.90;59.03;99667.91;5056467;28;1379;-63
2022/09/18 05:07:42;;;;;;;;;;;;;;;16.63;58.90;99674.13;5059666;28;1914;-62
2022/09/18 05:10:09;;;;;;;;;;;;;;;16.50;58.47;99673.78;5059317;28;1336;-62
2022/09/18 05:12:40;;;;;;;;;;;;;;;16.38;58.28;99677.00;5056755;28;1095;-62
2022/09/18 05:15:06;;;;;;;;;;;;;;;16.35;57.93;99688.56;5059559;28;1201;-62
2022/09/18 05:17:32;;;;;;;;;;;;;;;16.29;57.69;99695.25;5076896;28;1174;-62
2022/09/18 05:20:00;;;;;;;;;;;;;;;16.22;57.41;99694.81;5059277;28;1306;-60
2022/09/18 05:22:32;;;;;;;;;;;;;;;16.20;57.20;99697.84;5058830;28;1462;-61
2022/09/18 05:24:58;;;;;;;;;;;;;;;16.14;57.30;99684.50;5056455;28;1271;-62
2022/09/18 05:27:23;;;;;;;;;;;;;;;17.26;58.86;99694.69;5076843;28;1974;-61
2022/09/18 05:29:49;;;;;;;;;;;;;;;17.14;59.08;99695.22;5059180;28;2223;-62
2022/09/18 05:32:19;;;;;;;;;;;;;;;16.79;58.75;99697.47;5058861;28;1279;-62
2022/09/18 05:34:45;;;;;;;;;;;;;;;16.55;58.88;99694.81;5058857;28;1593;-63
2022/09/18 05:37:12;;;;;;;;;;;;;;;16.46;58.12;99689.22;5076639;28;1235;-61
2022/09/18 05:39:38;;;;;;;;;;;;;;;16.39;57.74;99694.28;5059336;28;1164;-61
2022/09/18 05:42:04;;;;;;;;;;;;;;;17.35;57.25;99698.38;5058786;28;1445;-61
2022/09/18 05:44:30;;;;;;;;;;;;;;;16.69;55.63;99692.13;5058904;28;1279;-61
2022/09/18 05:46:56;;;;;;;;;;;;;;;16.52;53.71;99692.69;5058150;28;1934;-61
2022/09/18 05:49:21;;;;;;;;;;;;;;;16.50;52.06;99700.41;5057927;28;1257;-62
2022/09/18 05:51:47;;;;;;;;;;;;;;;16.30;51.28;99699.63;5058702;28;1291;-61
2022/09/18 05:54:16;;;;;;;;;;;;;;;16.96;53.09;99707.91;5058400;28;1378;-61
2022/09/18 05:56:46;;;;;;;;;;;;;;;16.62;52.68;99722.72;5058688;28;1199;-62
2022/09/18 05:59:11;;;;;;;;;;;;;;;16.57;51.04;99717.31;5065528;28;1736;-62
2022/09/18 06:01:37;;;;;;;;;;;;;;;16.38;50.47;99726.41;5056230;28;1179;-61
2022/09/18 06:04:39;;;;;;;;;;;;;;;17.22;53.16;99735.72;4990879;28;1098;-61
2022/09/18 06:07:08;;;;;;;;;;;;;;;16.79;52.09;99741.38;5047629;28;2477;-62
2022/09/18 06:09:33;;;;;;;;;;;;;;;16.67;50.73;99739.09;5058109;28;1618;-62
2022/09/18 06:11:59;;;;;;;;;;;;;;;17.06;51.93;99735.16;5075852;28;1243;-62
2022/09/18 06:14:24;;;;;;;;;;;;;;;17.07;52.11;99734.06;5076255;28;1159;-61
2022/09/18 06:16:50;;;;;;;;;;;;;;;16.80;51.20;99740.25;5073725;28;1231;-63
2022/09/18 06:19:15;;;;;;;;;;;;;;;17.55;51.97;99734.81;5058628;28;1136;-63
2022/09/18 06:21:43;;;;;;;;;;;;;;;17.14;51.41;99744.66;5058724;28;1163;-63
2022/09/18 06:24:12;;;;;;;;;;;;;;;17.92;52.53;99757.72;5052100;28;1200;-60
2022/09/18 06:26:49;;;;;;;;;;;;;;;17.76;53.71;99758.03;5046868;28;1984;-63
2022/09/18 06:29:14;;;;;;;;;;;;;;;17.27;52.23;99763.09;5076009;28;1830;-61
2022/09/18 06:31:47;;;;;;;;;;;;;;;17.13;50.84;99784.22;5057779;28;1188;-61
2022/09/18 06:34:19;;;;;;;;;;;;;;;17.08;49.58;99771.41;5058161;28;1251;-61
2022/09/18 06:36:45;;;;;;;;;;;;;;;16.98;49.22;99779.00;5057778;28;1206;-61
2022/09/18 06:39:17;;;;;;;;;;;;;;;16.95;48.50;99771.38;5058505;28;1198;-62
2022/09/18 06:41:45;;;;;;;;;;;;;;;16.87;48.21;99787.38;5058180;28;1489;-61
2022/09/18 06:44:30;;;;;;;;;;;;;;;16.82;47.86;99795.69;5045703;28;1277;-62
2022/09/18 06:47:04;;;;;;;;;;;;;;;16.75;47.40;99785.09;5044202;28;1909;-62
2022/09/18 06:49:37;;;;;;;;;;;;;;;17.55;49.27;99795.28;5058116;28;1564;-62
2022/09/18 06:52:03;;;;;;;;;;;;;;;16.99;49.79;99795.16;5055413;28;1087;-61
2022/09/18 06:54:30;;;;;;;;;;;;;;;16.93;48.82;99791.69;5037613;28;1160;-64
2022/09/18 06:56:56;;;;;;;;;;;;;;;17.72;50.11;99806.50;5055730;28;1215;-59
2022/09/18 06:59:23;;;;;;;;;;;;;;;17.17;50.01;99823.72;5051529;28;2237;-61
2022/09/18 07:01:50;;;;;;;;;;;;;;;17.02;49.19;99822.03;5080046;28;1295;-62
2022/09/18 07:04:41;;;;;;;;;;;;;;;16.96;48.15;99834.22;5035485;28;1101;-61
2022/09/18 07:07:08;;;;;;;;;;;;;;;16.92;47.87;99836.75;5062547;28;1977;-61
2022/09/18 07:09:33;;;;;;;;;;;;;;;17.61;49.23;99849.88;5061417;28;1947;-61
2022/09/18 07:12:09;;;;;;;;;;;;;;;17.51;50.27;99861.03;5061940;28;1168;-61
2022/09/18 07:14:54;;;;;;;;;;;;;;;17.16;49.58;99863.28;5066491;28;1394;-61
2022/09/18 07:17:21;;;;;;;;;;;;;;;17.10;48.72;99861.75;5061989;28;1198;-61
2022/09/18 07:19:50;;;;;;;;;;;;;;;17.04;47.89;99857.44;5061575;28;1360;-61
2022/09/18 07:22:21;;;;;;;;;;;;;;;16.96;47.52;99847.94;5061946;28;1224;-61
2022/09/18 07:24:46;;;;;;;;;;;;;;;16.90;47.22;99825.25;5079456;28;1163;-61
2022/09/18 07:27:12;;;;;;;;;;;;;;;17.52;49.07;99839.88;5061931;28;1981;-61
2022/09/18 07:29:40;;;;;;;;;;;;;;;17.19;48.91;99820.66;5061680;28;2366;-61
2022/09/18 07:32:07;;;;;;;;;;;;;;;17.07;48.24;99816.47;5061864;28;1262;-62
2022/09/18 07:34:32;;;;;;;;;;;;;;;16.99;47.60;99817.13;5061718;28;1298;-62
2022/09/18 07:36:58;;;;;;;;;;;;;;;16.92;47.41;99801.03;5052267;28;1212;-62
2022/09/18 07:39:25;;;;;;;;;;;;;;;16.83;47.08;99823.94;5061607;28;1319;-62
2022/09/18 07:42:10;;;;;;;;;;;;;;;16.86;46.73;99826.13;5066457;28;1072;-63
2022/09/18 07:44:39;;;;;;;;;;;;;;;16.76;46.68;99843.56;5061277;28;1507;-63
2022/09/18 07:47:05;;;;;;;;;;;;;;;17.03;47.27;99861.31;5079186;28;1906;-63
2022/09/18 07:49:37;;;;;;;;;;;;;;;17.18;48.69;99879.47;5061295;28;1371;-63
2022/09/18 07:52:05;;;;;;;;;;;;;;;17.02;48.14;99871.47;5061208;28;1350;-63
2022/09/18 07:54:38;;;;;;;;;;;;;;;16.86;47.78;99865.38;5061412;28;1174;-62
2022/09/18 07:57:06;;;;;;;;;;;;;;;16.92;46.89;99890.84;5061270;28;1305;-62
2022/09/18 07:59:47;;;;;;;;;;;;;;;16.80;46.89;99876.72;5060336;28;2388;-62
2022/09/18 08:02:14;;;;;;;;;;;;;;;16.77;46.57;99881.72;5061149;28;1155;-63
2022/09/18 08:04:40;;;;;;;;;;;;;;;16.77;46.34;99881.72;5079061;28;1139;-62
2022/09/18 08:07:15;;;;;;;;;;;;;;;17.61;48.01;99887.53;5079169;28;1910;-62
2022/09/18 08:10:06;;;;;;;;;;;;;;;17.13;48.59;99894.09;5074586;28;1001;-63
2022/09/18 08:12:42;;;;;;;;;;;;;;;16.89;48.16;99885.97;5059748;28;1613;-63
2022/09/18 08:15:26;;;;;;;;;;;;;;;16.81;47.38;99898.38;5078710;28;1111;-63
2022/09/18 08:18:05;;;;;;;;;;;;;;;16.81;47.00;99886.59;5061018;28;1307;-63
2022/09/18 08:20:47;;;;;;;;;;;;;;;16.92;47.48;99893.59;5060957;28;1362;-63
2022/09/18 08:23:27;;;;;;;;;;;;;;;17.28;48.32;99884.81;5060789;28;1493;-63
2022/09/18 08:25:52;;;;;;;;;;;;;;;17.06;48.08;99897.22;5046465;28;1327;-63
2022/09/18 08:28:18;;;;;;;;;;;;;;;16.94;47.58;99896.84;5078653;28;2274;-63
2022/09/18 08:30:50;;;;;;;;;;;;;;;16.88;46.93;99881.53;5060905;28;1360;-63
2022/09/18 08:33:16;;;;;;;;;;;;;;;16.90;46.64;99901.31;5060856;28;1449;-63
2022/09/18 08:35:42;;;;;;;;;;;;;;;16.84;46.61;99902.47;5078249;28;1139;-63
2022/09/18 08:38:19;;;;;;;;;;;;;;;16.79;46.30;99914.34;5061017;28;1150;-63
2022/09/18 08:41:22;;;;;;;;;;;;;;;16.71;46.34;99901.28;5060603;28;1175;-63
2022/09/18 08:44:01;;;;;;;;;;;;;;;17.73;47.32;99906.31;5059969;28;1214;-64
2022/09/18 08:46:37;;;;;;;;;;;;;;;17.09;48.12;99912.28;5060202;28;1902;-63
2022/09/18 08:49:25;;;;;;;;;;;;;;;16.98;47.50;99922.59;5060208;28;1189;-64
2022/09/18 08:51:53;;;;;;;;;;;;;;;16.93;46.76;99918.00;5060183;28;1262;-64
2022/09/18 08:54:38;;;;;;;;;;;;;;;16.88;46.78;99915.34;5059996;28;1320;-64
2022/09/18 08:57:35;;;;;;;;;;;;;;;16.82;46.46;99927.47;5046757;28;1173;-64
2022/09/18 09:00:14;;;;;;;;;;;;;;;16.76;46.24;99923.19;5059372;28;2326;-64
2022/09/18 09:02:53;;;;;;;;;;;;;;;16.98;46.93;99928.09;5060207;28;1330;-63
2022/09/18 09:05:25;;;;;;;;;;;;;;;17.23;47.88;99915.91;5059785;28;1139;-63
2022/09/18 09:08:08;;;;;;;;;;;;;;;17.01;47.50;99932.19;5060084;28;1975;-63
2022/09/18 09:10:38;;;;;;;;;;;;;;;16.85;47.02;99926.06;5043699;28;1132;-63
2022/09/18 09:13:10;;;;;;;;;;;;;;;16.89;46.70;99927.16;5077603;28;1124;-63
2022/09/18 09:15:45;;;;;;;;;;;;;;;16.82;46.39;99934.91;5059756;28;1138;-64
2022/09/18 09:18:14;;;;;;;;;;;;;;;17.79;47.60;99932.59;5040471;28;1254;-64
2022/09/18 09:20:40;;;;;;;;;;;;;;;17.20;48.45;99915.72;5074329;28;1167;-63
2022/09/18 09:23:17;;;;;;;;;;;;;;;16.99;47.93;99929.75;5058853;28;1202;-64
2022/09/18 09:25:53;;;;;;;;;;;;;;;16.98;47.08;99927.28;5058850;28;1446;-64
2022/09/18 09:28:30;;;;;;;;;;;;;;;16.86;47.03;99919.47;5059566;28;2414;-58
2022/09/18 09:31:23;;;;;;;;;;;;;;;17.13;47.24;99920.75;5035477;28;1069;-59
2022/09/18 09:34:20;;;;;;;;;;;;;;;17.34;48.75;99935.00;5046525;28;1159;-60
2022/09/18 09:36:55;;;;;;;;;;;;;;;17.12;48.00;99930.13;5077002;28;1120;-59
2022/09/18 09:39:30;;;;;;;;;;;;;;;17.01;47.41;99926.69;5059596;28;1496;-58
2022/09/18 09:42:16;;;;;;;;;;;;;;;17.06;46.69;99926.63;5046197;28;1329;-62
2022/09/18 09:44:42;;;;;;;;;;;;;;;17.88;47.74;99911.53;5046764;28;1385;-64
2022/09/18 09:47:27;;;;;;;;;;;;;;;17.34;48.51;99919.31;5058897;28;1917;-64
2022/09/18 09:49:56;;;;;;;;;;;;;;;17.19;47.68;99931.34;5055075;28;1227;-61
2022/09/18 09:52:25;;;;;;;;;;;;;;;17.06;47.30;99904.66;5056419;28;1068;-62
2022/09/18 09:54:55;;;;;;;;;;;;;;;17.03;46.79;99922.53;5050423;28;1302;-63
2022/09/18 09:57:24;;;;;;;;;;;;;;;17.99;47.61;99914.09;5022439;28;1346;-59
2022/09/18 09:59:55;;;;;;;;;;;;;;;17.33;48.47;99920.44;5075825;28;2384;-60
2022/09/18 10:02:26;;;;;;;;;;;;;;;17.12;48.04;99925.44;5052924;28;1131;-59
2022/09/18 10:04:53;;;;;;;;;;;;;;;17.09;47.51;99904.06;5041980;28;1309;-59
2022/09/18 10:07:19;;;;;;;;;;;;;;;17.03;47.06;99911.56;5058881;28;1905;-60
2022/09/18 10:09:47;;;;;;;;;;;;;;;16.97;46.91;99914.66;5058367;28;1846;-59
2022/09/18 10:12:16;;;;;;;;;;;;;;;17.00;46.42;99917.66;5058837;28;1315;-59
2022/09/18 10:14:45;;;;;;;;;;;;;;;16.91;46.48;99913.94;5053971;28;992;-59
2022/09/18 10:17:10;;;;;;;;;;;;;;;16.98;46.11;99908.06;5076690;28;1084;-59
2022/09/18 10:19:36;;;;;;;;;;;;;;;16.85;46.41;99909.59;5058836;28;1103;-59
2022/09/18 10:22:03;;;;;;;;;;;;;;;16.91;45.92;99902.94;5041885;28;1755;-60
2022/09/18 10:24:34;;;;;;;;;;;;;;;18.18;47.38;99916.78;5058249;28;1212;-58
2022/09/18 10:27:08;;;;;;;;;;;;;;;17.57;49.73;99919.50;5041276;28;1918;-62
2022/09/18 10:29:34;;;;;;;;;;;;;;;17.34;48.53;99924.81;5057628;28;2397;-61
2022/09/18 10:32:00;;;;;;;;;;;;;;;17.19;48.19;99930.56;5058090;28;1211;-63
2022/09/18 10:34:32;;;;;;;;;;;;;;;17.15;47.61;99929.50;5057744;28;1239;-61
2022/09/18 10:36:58;;;;;;;;;;;;;;;17.10;47.15;99928.47;5057725;28;1451;-64
2022/09/18 10:39:31;;;;;;;;;;;;;;;17.14;46.94;99928.72;5041607;28;1307;-62
2022/09/18 10:42:04;;;;;;;;;;;;;;;17.48;48.77;99927.63;5058139;28;1269;-62
2022/09/18 10:44:33;;;;;;;;;;;;;;;17.20;48.32;99929.44;5057975;28;1231;-61
2022/09/18 10:47:07;;;;;;;;;;;;;;;17.28;47.23;99923.28;5042085;28;1986;-62
2022/09/18 10:49:34;;;;;;;;;;;;;;;17.18;46.96;99918.75;5057486;28;1195;-61
2022/09/18 10:52:19;;;;;;;;;;;;;;;17.67;47.88;99930.34;5041747;28;1271;-62
2022/09/18 10:55:04;;;;;;;;;;;;;;;17.47;48.62;99936.97;5057600;28;1212;-61
2022/09/18 10:57:29;;;;;;;;;;;;;;;17.25;48.03;99934.84;5057747;28;1203;-62
2022/09/18 10:59:57;;;;;;;;;;;;;;;17.16;47.49;99947.63;5039987;28;2371;-63
2022/09/18 11:02:23;;;;;;;;;;;;;;;17.17;47.05;99941.03;5055331;28;1234;-63
2022/09/18 11:04:50;;;;;;;;;;;;;;;17.10;46.54;99966.13;5063996;28;1281;-64
2022/09/18 11:07:19;;;;;;;;;;;;;;;17.04;46.59;99959.88;5057495;28;1981;-64
2022/09/18 11:09:45;;;;;;;;;;;;;;;17.00;46.51;99956.09;5057524;28;2042;-62
2022/09/18 11:12:19;;;;;;;;;;;;;;;17.01;46.36;99971.47;5057538;28;1247;-61
2022/09/18 11:14:46;;;;;;;;;;;;;;;16.97;46.04;99984.16;5059265;28;1199;-61
2022/09/18 11:17:30;;;;;;;;;;;;;;;16.96;46.23;99989.91;5039653;28;1125;-61
2022/09/18 11:19:58;;;;;;;;;;;;;;;17.00;45.72;100000.03;5057375;28;1342;-62
2022/09/18 11:22:40;;;;;;;;;;;;;;;16.97;46.03;99995.16;5057679;28;1274;-61
2022/09/18 11:25:13;;;;;;;;;;;;;;;16.90;45.98;100005.66;5041741;28;1224;-62
2022/09/18 11:27:43;;;;;;;;;;;;;;;16.87;45.88;100003.47;5057574;28;1902;-62
2022/09/18 11:30:13;;;;;;;;;;;;;;;16.93;46.27;99975.69;5057300;28;2701;-61
2022/09/18 11:32:40;;;;;;;;;;;;;;;17.72;47.93;100009.97;5057467;28;1242;-61
2022/09/18 11:35:12;;;;;;;;;;;;;;;17.22;47.96;100001.38;5057659;28;1298;-61
2022/09/18 11:37:56;;;;;;;;;;;;;;;17.06;47.65;99996.09;5057338;28;1183;-62
2022/09/18 11:40:22;;;;;;;;;;;;;;;16.98;47.15;99998.69;5057400;28;1251;-61
2022/09/18 11:42:49;;;;;;;;;;;;;;;16.99;46.80;99995.66;5057700;28;1411;-61
2022/09/18 11:45:28;;;;;;;;;;;;;;;16.88;46.71;100000.47;5057367;28;1235;-62
2022/09/18 11:47:56;;;;;;;;;;;;;;;16.90;46.50;99998.25;5060355;28;1901;-62
2022/09/18 11:50:25;;;;;;;;;;;;;;;16.99;45.83;99981.91;5078835;28;1246;-63
2022/09/18 11:52:56;;;;;;;;;;;;;;;16.86;46.28;100001.84;5044715;28;1222;-63
2022/09/18 11:55:41;;;;;;;;;;;;;;;16.95;45.72;100002.84;5044788;28;1294;-60
2022/09/18 11:58:11;;;;;;;;;;;;;;;18.07;47.36;99999.50;5060984;28;2290;-58
2022/09/18 12:00:42;;;;;;;;;;;;;;;17.31;48.26;100005.09;5041480;28;1154;-59
2022/09/18 12:03:17;;;;;;;;;;;;;;;17.12;47.70;99996.84;5060762;28;1327;-60
2022/09/18 12:05:43;;;;;;;;;;;;;;;17.19;46.99;99996.47;5061263;28;1104;-60
2022/09/18 12:08:28;;;;;;;;;;;;;;;17.07;46.82;99997.75;5061184;28;1988;-58
2022/09/18 12:11:08;;;;;;;;;;;;;;;17.03;46.55;99985.72;5060912;28;1215;-57
2022/09/18 12:13:45;;;;;;;;;;;;;;;17.00;46.44;99986.31;5041027;28;1219;-60
2022/09/18 12:16:13;;;;;;;;;;;;;;;16.95;46.35;100000.09;5035949;28;1250;-59
2022/09/18 12:18:58;;;;;;;;;;;;;;;16.92;46.46;99978.72;5061306;28;1218;-60
2022/09/18 12:21:30;;;;;;;;;;;;;;;16.92;46.20;99986.97;5060862;28;1175;-60
2022/09/18 12:23:55;;;;;;;;;;;;;;;16.92;46.12;99987.78;5041013;28;1112;-60
2022/09/18 12:26:42;;;;;;;;;;;;;;;16.95;46.05;99982.81;5049544;28;1409;-60
2022/09/18 12:29:17;;;;;;;;;;;;;;;16.85;45.89;99989.22;5060888;28;1939;-60
2022/09/18 12:31:55;;;;;;;;;;;;;;;17.71;47.40;99991.84;5075018;28;1253;-58
2022/09/18 12:34:20;;;;;;;;;;;;;;;17.17;48.05;99995.97;5066782;28;937;-58
2022/09/18 12:36:49;;;;;;;;;;;;;;;17.10;47.11;99999.91;5069443;28;1308;-58
2022/09/18 12:39:33;;;;;;;;;;;;;;;17.06;46.63;99993.34;5075756;28;1111;-61
2022/09/18 12:42:05;;;;;;;;;;;;;;;17.78;47.72;99996.94;5065324;28;1096;-59
2022/09/18 12:44:49;;;;;;;;;;;;;;;17.27;48.28;100001.31;5077367;28;1115;-58
2022/09/18 12:47:27;;;;;;;;;;;;;;;17.12;47.70;100010.59;5057651;28;1898;-60
2022/09/18 12:50:12;;;;;;;;;;;;;;;17.14;46.79;100004.78;5057180;28;1242;-60
2022/09/18 12:52:42;;;;;;;;;;;;;;;17.04;46.71;100009.31;5057370;28;1168;-60
2022/09/18 12:55:07;;;;;;;;;;;;;;;18.19;47.37;100009.19;5047698;28;1310;-60
2022/09/18 12:57:33;;;;;;;;;;;;;;;17.51;48.24;100003.97;5062242;28;1164;-59
2022/09/18 13:00:21;;;;;;;;;;;;;;;17.25;47.88;99996.13;5076354;28;1796;-59
2022/09/18 13:03:05;;;;;;;;;;;;;;;17.11;47.49;100000.72;5076996;28;1218;-59
2022/09/18 13:05:38;;;;;;;;;;;;;;;17.17;46.73;100004.22;5077266;28;1214;-59
2022/09/18 13:08:10;;;;;;;;;;;;;;;17.12;46.52;100009.78;5059487;28;1968;-58
2022/09/18 13:10:39;;;;;;;;;;;;;;;17.05;46.17;99991.72;5045885;28;1196;-60
2022/09/18 13:13:24;;;;;;;;;;;;;;;17.01;46.15;100015.41;5077837;28;1175;-59
2022/09/18 13:15:49;;;;;;;;;;;;;;;17.60;47.80;100007.69;5072138;28;1300;-59